EGAE/LDY METAR and TAF weather

Enter ICAO airport designator
Station Type Date Time Source
EGAE METAR 2019/02/23 15:50 UTC NOAA

EGAE 231550Z 22015KT 190V260 9999 FEW020 14/06 Q1024


Station Type Date Time Source
EGAE Decoded METAR 2019/02/23 15:50 UTC NOAA

Eglinton / Londonderr, United Kingdom (EGAE) 55-03N 007-09W
Feb 23, 2019 - 10:50 AM EST / 2019.02.23 1550 UTC
Wind: from the SW (220 degrees) at 17 MPH (15 KT) (direction variable):0
Visibility: greater than 7 mile(s):0
Sky conditions: mostly clear
Temperature: 57 F (14 C)
Dew Point: 42 F (6 C)
Relative Humidity: 58%
Pressure (altimeter): 30.24 in. Hg (1024 hPa)
ob: EGAE 231550Z 22015KT 190V260 9999 FEW020 14/06 Q1024
cycle: 16

Station Type Date Time Source
EGAE TAF UTC NOAA

Error!


Example: see airport list